Datum Uhrzeit Temperatur Luft Windgeschw. Regen Regen (1h) Temp (1h) Luftdruck Windrichtung Taupunkt Sensor
2018-11-14 23:56:00 8.4 90.0 0.0 0.0 0.0 -0.5 6.9 Kombisensor
2018-11-14 23:54:00 8.3 90.0 0.0 0.0 0.0 -0.5 6.8 Kombisensor
2018-11-14 23:41:00 8.4 90.0 0.0 0.0 0.0 -0.5 6.9 Kombisensor
2018-11-14 23:33:00 8.5 90.0 0.0 0.0 0.0 -0.3 7.0 Kombisensor
2018-11-14 23:28:00 8.6 90.0 0.0 0.0 0.0 -0.2 7.1 Kombisensor
2018-11-14 23:16:00 8.7 90.0 0.0 0.0 0.0 -0.1 7.2 Kombisensor
2018-11-14 23:03:00 8.8 90.0 0.0 0.0 0.0 0.1 7.2 Kombisensor
2018-11-14 22:55:00 8.9 90.0 0.0 0.0 0.0 0.3 7.3 Kombisensor
2018-11-14 22:53:00 8.8 90.0 0.0 0.0 0.0 0.1 7.2 Kombisensor
2018-11-14 22:42:00 8.9 90.0 0.0 0.0 0.0 0.3 7.3 Kombisensor
2018-11-14 22:25:00 8.8 90.0 0.0 0.0 0.0 0.2 7.2 Kombisensor
2018-11-14 22:22:00 8.8 90.0 0.2 0.0 0.0 0.2 7.2 Kombisensor
2018-11-14 22:20:00 8.8 90.0 0.0 0.0 0.0 0.2 7.2 Kombisensor
2018-11-14 22:07:00 8.8 91.0 0.0 0.0 0.0 0.2 7.4 Kombisensor
2018-11-14 21:57:00 8.7 91.0 0.0 0.0 0.0 0.0 7.3 Kombisensor
2018-11-14 21:54:00 8.6 91.0 0.0 0.0 0.0 -0.1 7.2 Kombisensor
2018-11-14 21:52:00 8.7 91.0 0.0 0.0 0.0 0.0 7.3 Kombisensor
2018-11-14 21:03:00 8.6 91.0 0.0 0.0 0.0 -0.1 7.2 Kombisensor
2018-11-14 20:35:00 8.7 91.0 0.0 0.0 0.0 0.1 7.3 Kombisensor
2018-11-14 20:28:00 8.6 91.0 0.0 0.0 0.0 0.0 7.2 Kombisensor
2018-11-14 20:25:00 8.7 91.0 0.0 0.0 0.0 0.1 7.3 Kombisensor
2018-11-14 20:18:00 8.6 91.0 0.0 0.0 0.0 0.0 7.2 Kombisensor
2018-11-14 20:02:00 8.7 91.0 0.0 0.0 0.0 0.1 7.3 Kombisensor
2018-11-14 20:00:00 8.6 91.0 0.0 0.0 0.0 0.0 7.2 Kombisensor
2018-11-14 19:55:00 8.7 91.0 0.0 0.0 0.0 0.1 7.3 Kombisensor
2018-11-14 19:52:00 8.7 91.0 0.2 0.0 0.0 0.1 7.3 Kombisensor
2018-11-14 19:11:00 8.6 91.0 0.0 0.0 0.0 -0.1 7.2 Kombisensor
2018-11-14 19:09:00 8.7 91.0 0.0 0.0 0.0 0.0 7.3 Kombisensor
2018-11-14 19:06:00 8.6 91.0 0.0 0.0 0.0 -0.1 7.2 Kombisensor
2018-11-14 19:04:00 8.6 91.0 0.2 0.0 0.0 -0.1 7.2 Kombisensor
2018-11-14 19:01:00 8.6 91.0 0.0 0.0 0.0 -0.1 7.2 Kombisensor
2018-11-14 18:59:00 8.6 92.0 0.2 0.0 0.0 -0.1 7.4 Kombisensor
2018-11-14 18:44:00 8.6 91.0 0.0 0.0 0.0 -0.1 7.2 Kombisensor
2018-11-14 18:41:00 8.6 92.0 0.0 0.0 0.0 -0.2 7.4 Kombisensor
2018-11-14 18:33:00 8.6 91.0 0.0 0.0 0.0 -0.1 7.2 Kombisensor
2018-11-14 18:31:00 8.6 91.0 0.5 0.0 0.0 -0.1 7.2 Kombisensor
2018-11-14 18:16:00 8.6 91.0 0.0 0.0 0.0 -0.1 7.2 Kombisensor
2018-11-14 18:13:00 8.7 91.0 0.0 0.0 0.0 0.0 7.3 Kombisensor
2018-11-14 18:10:00 8.7 91.0 0.2 0.0 0.0 0.0 7.3 Kombisensor
2018-11-14 18:08:00 8.7 91.0 0.0 0.0 0.0 0.0 7.3 Kombisensor
2018-11-14 18:03:00 8.7 91.0 0.5 0.0 0.0 0.0 7.3 Kombisensor
2018-11-14 18:00:00 8.7 92.0 0.0 0.0 0.0 0.0 7.5 Kombisensor
2018-11-14 17:55:00 8.7 91.0 0.0 0.0 0.0 0.0 7.3 Kombisensor
2018-11-14 17:53:00 8.7 92.0 0.0 0.0 0.0 0.0 7.5 Kombisensor
2018-11-14 17:50:00 8.8 92.0 0.0 0.0 0.0 0.1 7.6 Kombisensor
2018-11-14 17:43:00 8.7 92.0 0.0 0.0 0.0 -0.1 7.5 Kombisensor
2018-11-14 17:40:00 8.8 92.0 0.0 0.0 0.0 0.0 7.6 Kombisensor
2018-11-14 17:37:00 8.7 92.0 0.0 0.0 0.0 -0.1 7.5 Kombisensor
2018-11-14 17:35:00 8.7 92.0 0.2 0.0 0.0 -0.1 7.5 Kombisensor
2018-11-14 17:32:00 8.7 92.0 0.0 0.0 0.0 -0.1 7.5 Kombisensor
2018-11-14 17:30:00 8.7 92.0 0.8 0.0 0.0 -0.2 7.5 Kombisensor
2018-11-14 17:20:00 8.7 92.0 0.0 0.0 0.0 -0.1 7.5 Kombisensor
2018-11-14 17:17:00 8.7 92.0 0.0 0.0 0.0 -0.1 7.5 Kombisensor
2018-11-14 17:04:00 8.7 92.0 0.0 0.0 0.0 -0.1 7.5 Kombisensor
2018-11-14 17:02:00 8.7 92.0 0.2 0.0 0.0 -0.1 7.5 Kombisensor
2018-11-14 16:49:00 8.7 92.0 0.0 0.0 0.0 -0.1 7.5 Kombisensor
2018-11-14 16:47:00 8.8 92.0 0.0 0.0 0.0 0.0 7.6 Kombisensor
2018-11-14 16:42:00 8.8 92.0 0.2 0.0 0.0 0.1 7.6 Kombisensor
2018-11-14 16:31:00 8.8 92.0 0.0 0.0 0.0 0.1 7.6 Kombisensor
2018-11-14 16:29:00 8.9 92.0 0.0 0.0 0.0 0.2 7.7 Kombisensor
2018-11-14 16:26:00 8.8 92.0 0.0 0.0 0.0 0.1 7.6 Kombisensor
2018-11-14 16:24:00 8.9 92.0 0.0 0.0 0.0 0.2 7.7 Kombisensor
2018-11-14 16:08:00 8.8 92.0 0.0 0.0 0.0 0.2 7.6 Kombisensor
2018-11-14 16:06:00 8.8 92.0 0.5 0.0 0.0 0.2 7.6 Kombisensor
2018-11-14 15:58:00 8.8 92.0 0.8 0.0 0.0 0.2 7.6 Kombisensor
2018-11-14 15:56:00 8.8 92.0 0.0 0.0 0.0 0.2 7.6 Kombisensor
2018-11-14 15:53:00 8.7 92.0 0.0 0.0 0.0 0.1 7.5 Kombisensor
2018-11-14 15:51:00 8.8 92.0 0.0 0.0 0.0 0.3 7.6 Kombisensor
2018-11-14 15:46:00 8.8 92.0 0.2 0.0 0.0 0.3 7.6 Kombisensor
2018-11-14 15:43:00 8.8 92.0 0.0 0.0 0.0 0.3 7.6 Kombisensor
2018-11-14 15:38:00 8.7 92.0 1.1 0.0 0.0 0.2 7.5 Kombisensor
2018-11-14 15:35:00 8.7 92.0 0.2 0.0 0.0 0.2 7.5 Kombisensor
2018-11-14 15:33:00 8.6 92.0 0.0 0.0 0.0 0.1 7.4 Kombisensor
2018-11-14 15:28:00 8.7 92.0 0.0 0.0 0.0 0.1 7.5 Kombisensor
2018-11-14 15:25:00 8.7 92.0 0.5 0.0 0.0 0.1 7.5 Kombisensor
2018-11-14 15:20:00 8.7 92.0 1.9 0.0 0.0 0.1 7.5 Kombisensor
2018-11-14 15:18:00 8.6 92.0 2.5 0.0 0.0 0.1 7.4 Kombisensor
2018-11-14 15:15:00 8.6 92.0 1.3 0.0 0.0 0.0 7.4 Kombisensor
2018-11-14 15:13:00 8.6 92.0 2.2 0.0 0.0 0.1 7.4 Kombisensor
2018-11-14 15:10:00 8.6 92.0 1.6 0.0 0.0 0.1 7.4 Kombisensor
2018-11-14 15:07:00 8.6 92.0 0.8 0.0 0.0 0.1 7.4 Kombisensor
2018-11-14 15:05:00 8.6 92.0 0.2 0.0 0.0 0.1 7.4 Kombisensor
2018-11-14 15:02:00 8.6 92.0 0.0 0.0 0.0 0.1 7.4 Kombisensor
2018-11-14 14:57:00 8.6 92.0 0.8 0.0 0.0 0.1 7.4 Kombisensor
2018-11-14 14:55:00 8.6 92.0 1.6 0.0 0.0 0.1 7.4 Kombisensor
2018-11-14 14:52:00 8.6 92.0 0.0 0.0 0.0 0.0 7.4 Kombisensor
2018-11-14 14:50:00 8.5 92.0 6.1 0.0 0.0 0.0 7.3 Kombisensor
2018-11-14 14:47:00 8.5 92.0 0.5 0.0 0.0 0.0 7.3 Kombisensor
2018-11-14 14:45:00 8.5 92.0 1.3 0.0 0.0 0.0 7.3 Kombisensor
2018-11-14 14:40:00 8.5 92.0 1.1 0.0 0.0 0.0 7.3 Kombisensor
2018-11-14 14:37:00 8.5 92.0 3.0 0.0 0.0 0.1 7.3 Kombisensor
2018-11-14 14:34:00 8.5 92.0 0.8 0.0 0.0 0.1 7.3 Kombisensor
2018-11-14 14:32:00 8.5 92.0 1.9 0.0 0.0 0.1 7.3 Kombisensor
2018-11-14 14:29:00 8.6 92.0 1.6 0.0 0.0 0.2 7.4 Kombisensor
2018-11-14 14:27:00 8.6 92.0 1.3 0.0 0.0 0.2 7.4 Kombisensor
2018-11-14 14:24:00 8.6 92.0 0.0 0.0 0.0 0.2 7.4 Kombisensor
2018-11-14 14:22:00 8.6 92.0 0.5 0.0 0.0 0.2 7.4 Kombisensor
2018-11-14 14:19:00 8.6 92.0 0.0 0.0 0.0 0.2 7.4 Kombisensor
2018-11-14 14:17:00 8.5 92.0 1.9 0.0 0.0 0.1 7.3 Kombisensor
2018-11-14 14:14:00 8.6 92.0 0.5 0.0 0.0 0.2 7.4 Kombisensor
2018-11-14 14:12:00 8.5 92.0 0.8 0.0 0.0 0.1 7.3 Kombisensor
2018-11-14 14:09:00 8.5 92.0 3.0 0.0 0.0 0.1 7.3 Kombisensor
2018-11-14 14:07:00 8.5 92.0 0.5 0.0 0.0 0.1 7.3 Kombisensor
2018-11-14 14:04:00 8.5 92.0 0.0 0.0 0.0 0.1 7.3 Kombisensor
2018-11-14 13:59:00 8.5 92.0 1.3 0.0 0.0 0.0 7.3 Kombisensor
2018-11-14 13:54:00 8.5 92.0 1.1 0.0 0.0 0.1 7.3 Kombisensor
2018-11-14 13:51:00 8.6 92.0 0.2 0.0 0.0 0.2 7.4 Kombisensor
2018-11-14 13:49:00 8.5 92.0 1.1 0.0 0.0 0.0 7.3 Kombisensor
2018-11-14 13:44:00 8.5 92.0 1.1 0.0 0.0 0.1 7.3 Kombisensor
2018-11-14 13:39:00 8.5 92.0 1.3 0.0 0.0 0.1 7.3 Kombisensor
2018-11-14 13:36:00 8.4 92.0 1.6 0.0 0.0 0.0 7.2 Kombisensor
2018-11-14 13:33:00 8.4 92.0 9.7 0.0 0.0 0.0 7.2 Kombisensor
2018-11-14 13:31:00 8.4 92.0 0.5 0.0 0.0 0.0 7.2 Kombisensor
2018-11-14 13:28:00 8.4 92.0 1.6 0.0 0.0 0.0 7.2 Kombisensor
2018-11-14 13:26:00 8.4 92.0 0.5 0.0 0.0 -0.1 7.2 Kombisensor
2018-11-14 13:23:00 8.4 92.0 1.6 0.0 0.0 0.0 7.2 Kombisensor
2018-11-14 13:16:00 8.4 92.0 1.1 0.0 0.0 -0.1 7.2 Kombisensor
2018-11-14 13:13:00 8.4 92.0 1.9 0.0 0.0 -0.1 7.2 Kombisensor
2018-11-14 13:11:00 8.4 92.0 3.6 0.0 0.0 -0.1 7.2 Kombisensor
2018-11-14 13:08:00 8.4 92.0 3.6 0.0 0.0 -0.2 7.2 Kombisensor
2018-11-14 13:05:00 8.4 92.0 4.1 0.0 0.0 -0.2 7.2 Kombisensor
2018-11-14 13:03:00 8.5 92.0 1.6 0.0 0.0 -0.1 7.3 Kombisensor
2018-11-14 13:00:00 8.5 92.0 2.5 0.0 0.0 -0.1 7.3 Kombisensor
2018-11-14 12:58:00 8.4 92.0 3.0 0.0 0.0 -0.2 7.2 Kombisensor
2018-11-14 12:55:00 8.4 92.0 1.6 0.0 0.0 -0.2 7.2 Kombisensor
2018-11-14 12:53:00 8.4 92.0 2.2 0.0 0.0 -0.2 7.2 Kombisensor
2018-11-14 12:50:00 8.4 92.0 1.9 0.0 0.0 -0.2 7.2 Kombisensor
2018-11-14 12:48:00 8.5 92.0 1.9 0.0 0.0 -0.1 7.3 Kombisensor
2018-11-14 12:45:00 8.5 92.0 0.5 0.0 0.0 -0.1 7.3 Kombisensor
2018-11-14 12:43:00 8.4 92.0 2.2 0.0 0.0 -0.2 7.2 Kombisensor
2018-11-14 12:38:00 8.4 92.0 2.7 0.0 0.0 -0.3 7.2 Kombisensor
2018-11-14 12:35:00 8.4 92.0 4.1 0.0 0.0 -0.4 7.2 Kombisensor
2018-11-14 12:32:00 8.4 92.0 2.7 0.0 0.0 -0.4 7.2 Kombisensor
2018-11-14 12:30:00 8.4 92.0 2.5 0.0 0.0 -0.4 7.2 Kombisensor
2018-11-14 12:27:00 8.4 92.0 2.2 0.0 0.0 -0.5 7.2 Kombisensor
2018-11-14 12:25:00 8.5 92.0 1.6 0.0 0.0 -0.3 7.3 Kombisensor
2018-11-14 12:22:00 8.4 92.0 2.5 0.0 0.0 -0.4 7.2 Kombisensor
2018-11-14 12:20:00 8.5 92.0 2.5 0.0 0.0 -0.4 7.3 Kombisensor
2018-11-14 12:17:00 8.4 91.0 2.7 0.0 0.0 -0.5 7.0 Kombisensor
2018-11-14 12:15:00 8.5 91.0 3.3 0.0 0.0 -0.5 7.1 Kombisensor
2018-11-14 12:12:00 8.5 91.0 1.3 0.0 0.0 -0.5 7.1 Kombisensor
2018-11-14 12:10:00 8.5 91.0 1.9 0.0 0.0 -0.5 7.1 Kombisensor
2018-11-14 12:07:00 8.6 92.0 3.3 0.0 0.0 -0.4 7.4 Kombisensor
2018-11-14 12:04:00 8.6 91.0 2.5 0.0 0.0 -0.4 7.2 Kombisensor
2018-11-14 12:02:00 8.6 91.0 11.1 0.0 0.0 -0.4 7.2 Kombisensor
2018-11-14 11:57:00 8.6 91.0 2.5 0.0 0.0 -0.3 7.2 Kombisensor
2018-11-14 11:52:00 8.6 91.0 1.3 0.0 0.0 -0.3 7.2 Kombisensor
2018-11-14 11:49:00 8.6 91.0 0.8 0.0 0.0 -0.3 7.2 Kombisensor
2018-11-14 11:47:00 8.6 91.0 3.0 0.0 0.0 -0.4 7.2 Kombisensor
2018-11-14 11:44:00 8.6 91.0 1.9 0.0 0.0 -0.4 7.2 Kombisensor
2018-11-14 11:42:00 8.6 91.0 1.1 0.0 0.0 -0.4 7.2 Kombisensor
2018-11-14 11:39:00 8.7 91.0 1.6 0.0 0.0 -0.2 7.3 Kombisensor
2018-11-14 11:37:00 8.7 91.0 1.1 0.0 0.0 -0.2 7.3 Kombisensor
2018-11-14 11:34:00 8.8 91.0 1.9 0.0 0.0 -0.1 7.4 Kombisensor
2018-11-14 11:29:00 8.8 91.0 1.6 0.0 0.0 -0.1 7.4 Kombisensor
2018-11-14 11:26:00 8.9 91.0 1.1 0.0 0.0 0.0 7.5 Kombisensor
2018-11-14 11:24:00 8.8 91.0 1.9 0.0 0.0 -0.1 7.4 Kombisensor
2018-11-14 11:21:00 8.8 91.0 0.8 0.0 0.0 -0.1 7.4 Kombisensor
2018-11-14 11:16:00 8.9 91.0 1.6 0.0 0.0 0.0 7.5 Kombisensor
2018-11-14 11:14:00 9.0 91.0 1.3 0.0 0.0 0.0 7.6 Kombisensor
2018-11-14 11:11:00 9.0 91.0 1.6 0.0 0.0 0.0 7.6 Kombisensor
2018-11-14 11:09:00 9.0 91.0 1.1 0.0 0.0 -0.1 7.6 Kombisensor
2018-11-14 11:06:00 9.0 91.0 0.2 0.0 0.0 -0.1 7.6 Kombisensor
2018-11-14 11:03:00 9.0 91.0 1.6 0.0 0.0 0.0 7.6 Kombisensor
2018-11-14 11:01:00 8.9 91.0 1.6 0.0 0.0 -0.1 7.5 Kombisensor
2018-11-14 10:58:00 8.9 91.0 0.0 0.0 0.0 -0.3 7.5 Kombisensor
2018-11-14 10:56:00 8.9 91.0 1.6 0.0 0.0 -0.3 7.5 Kombisensor
2018-11-14 10:53:00 8.8 91.0 0.2 0.0 0.0 -0.4 7.4 Kombisensor
2018-11-14 10:51:00 8.9 91.0 2.2 0.0 0.0 -0.3 7.5 Kombisensor
2018-11-14 10:48:00 8.9 91.0 1.9 0.0 0.0 -0.3 7.5 Kombisensor
2018-11-14 10:46:00 9.0 91.0 1.9 0.0 0.0 -0.2 7.6 Kombisensor
2018-11-14 10:43:00 9.0 91.0 1.6 0.0 0.0 -0.2 7.6 Kombisensor
2018-11-14 10:41:00 9.0 91.0 1.1 0.0 0.0 -0.2 7.6 Kombisensor
2018-11-14 10:35:00 8.9 91.0 1.6 0.0 0.0 -0.3 7.5 Kombisensor
2018-11-14 10:33:00 8.9 91.0 4.4 0.0 0.0 -0.3 7.5 Kombisensor
2018-11-14 10:30:00 8.9 91.0 1.3 0.0 0.0 -0.3 7.5 Kombisensor
2018-11-14 10:28:00 8.9 91.0 3.3 0.0 0.0 -0.3 7.5 Kombisensor
2018-11-14 10:25:00 8.9 92.0 1.1 0.0 0.0 -0.3 7.7 Kombisensor
2018-11-14 10:20:00 8.9 92.0 2.2 0.0 0.0 -0.3 7.7 Kombisensor
2018-11-14 10:18:00 8.9 92.0 1.9 0.0 0.0 -0.3 7.7 Kombisensor
2018-11-14 10:15:00 8.9 92.0 2.5 0.0 0.0 -0.3 7.7 Kombisensor
2018-11-14 10:13:00 9.0 92.0 1.9 0.0 0.0 -0.2 7.8 Kombisensor
2018-11-14 10:10:00 9.0 92.0 3.6 0.0 0.0 -0.1 7.8 Kombisensor
2018-11-14 10:05:00 9.1 91.0 2.7 0.0 0.0 0.0 7.7 Kombisensor
2018-11-14 10:02:00 9.0 91.0 2.7 0.0 0.0 -0.1 7.6 Kombisensor
2018-11-14 10:00:00 9.0 91.0 3.8 0.0 0.0 -0.1 7.6 Kombisensor
2018-11-14 09:55:00 9.2 91.0 1.9 0.0 0.0 0.0 7.8 Kombisensor
2018-11-14 09:52:00 9.2 91.0 2.7 0.0 0.0 0.1 7.8 Kombisensor
2018-11-14 09:50:00 9.2 91.0 2.2 0.0 0.0 0.1 7.8 Kombisensor
2018-11-14 09:47:00 9.2 91.0 1.9 0.0 0.0 0.1 7.8 Kombisensor
2018-11-14 09:45:00 9.2 91.0 2.5 0.0 0.0 0.2 7.8 Kombisensor
2018-11-14 09:42:00 9.2 91.0 1.9 0.0 0.0 0.1 7.8 Kombisensor
2018-11-14 09:40:00 9.2 91.0 2.2 0.0 0.0 0.2 7.8 Kombisensor
2018-11-14 09:37:00 9.2 92.0 8.3 0.0 0.0 0.1 8.0 Kombisensor
2018-11-14 09:32:00 9.2 92.0 0.0 0.0 0.0 0.2 8.0 Kombisensor
2018-11-14 09:29:00 9.2 92.0 1.6 0.0 0.0 0.1 8.0 Kombisensor
2018-11-14 09:27:00 9.2 92.0 1.1 0.0 0.0 0.1 8.0 Kombisensor
2018-11-14 09:24:00 9.2 92.0 3.3 0.0 0.0 0.1 8.0 Kombisensor
2018-11-14 09:22:00 9.2 92.0 1.9 0.0 0.0 0.1 8.0 Kombisensor
2018-11-14 09:19:00 9.2 92.0 1.6 0.0 0.0 0.1 8.0 Kombisensor
2018-11-14 09:12:00 9.2 92.0 0.0 0.0 0.0 0.2 8.0 Kombisensor
2018-11-14 09:09:00 9.1 92.0 0.0 0.0 0.0 0.1 7.9 Kombisensor
2018-11-14 09:07:00 9.2 92.0 0.5 0.0 0.0 0.2 8.0 Kombisensor
2018-11-14 09:04:00 9.1 92.0 1.3 0.0 0.0 0.0 7.9 Kombisensor
2018-11-14 09:01:00 9.1 92.0 1.9 0.0 0.0 0.1 7.9 Kombisensor
2018-11-14 08:59:00 9.1 92.0 1.6 0.0 0.0 0.1 7.9 Kombisensor
2018-11-14 08:56:00 9.2 92.0 3.3 0.0 0.0 0.5 8.0 Kombisensor
2018-11-14 08:54:00 9.1 92.0 1.9 0.0 0.0 0.4 7.9 Kombisensor
2018-11-14 08:49:00 9.1 92.0 0.5 0.0 0.0 0.7 7.9 Kombisensor
2018-11-14 08:46:00 9.1 92.0 1.6 0.0 0.0 0.8 7.9 Kombisensor
2018-11-14 08:44:00 9.0 92.0 0.0 0.0 0.0 1.0 7.8 Kombisensor
2018-11-14 08:41:00 9.1 92.0 0.5 0.0 0.0 1.2 7.9 Kombisensor
2018-11-14 08:39:00 9.0 92.0 0.0 0.0 0.0 1.2 7.8 Kombisensor
2018-11-14 08:34:00 9.1 92.0 0.0 0.0 0.0 1.9 7.9 Kombisensor
2018-11-14 08:31:00 9.0 92.0 0.2 0.0 0.0 1.8 7.8 Kombisensor
2018-11-14 08:28:00 9.1 92.0 0.8 0.0 0.0 1.9 7.9 Kombisensor
2018-11-14 08:26:00 9.1 92.0 0.5 0.0 0.0 1.9 7.9 Kombisensor
2018-11-14 08:23:00 9.1 92.0 0.0 0.0 0.0 1.9 7.9 Kombisensor
2018-11-14 08:21:00 9.1 92.0 0.8 0.0 0.0 1.9 7.9 Kombisensor
2018-11-14 08:18:00 9.1 92.0 1.1 0.0 0.0 1.9 7.9 Kombisensor
2018-11-14 08:13:00 9.1 92.0 2.5 0.0 0.0 2.1 7.9 Kombisensor
2018-11-14 08:11:00 9.0 92.0 2.7 0.0 0.0 2.0 7.8 Kombisensor
2018-11-14 08:06:00 9.0 92.0 0.8 0.0 0.0 2.0 7.8 Kombisensor
2018-11-14 08:03:00 9.1 92.0 0.0 0.0 0.0 2.2 7.9 Kombisensor
2018-11-14 08:00:00 9.0 92.0 2.7 0.0 0.0 2.2 7.8 Kombisensor
2018-11-14 07:58:00 9.0 92.0 2.5 0.0 0.0 2.2 7.8 Kombisensor
2018-11-14 07:53:00 8.7 92.0 0.5 0.0 0.0 1.9 7.5 Kombisensor
2018-11-14 07:50:00 8.5 92.0 0.5 0.0 0.0 1.7 7.3 Kombisensor
2018-11-14 07:48:00 8.4 91.0 0.0 0.0 0.0 1.5 7.0 Kombisensor
2018-11-14 07:45:00 8.3 91.0 0.0 0.0 0.0 1.4 6.9 Kombisensor
2018-11-14 07:43:00 8.0 92.0 0.0 0.0 0.0 1.0 6.8 Kombisensor
2018-11-14 07:40:00 7.9 91.0 0.0 0.0 0.0 0.8 6.5 Kombisensor
2018-11-14 07:38:00 7.8 91.0 0.0 0.0 0.0 0.7 6.4 Kombisensor
2018-11-14 07:35:00 7.6 91.0 0.0 0.0 0.0 0.6 6.2 Kombisensor
2018-11-14 07:32:00 7.2 91.0 0.0 0.0 0.0 0.2 5.8 Kombisensor
2018-11-14 07:30:00 7.3 91.0 0.0 0.0 0.0 0.3 5.9 Kombisensor
2018-11-14 07:17:00 7.2 91.0 0.0 0.0 0.0 0.2 5.8 Kombisensor
2018-11-14 07:05:00 7.0 91.0 0.0 0.0 0.0 -0.2 5.6 Kombisensor
2018-11-14 07:02:00 6.9 91.0 0.0 0.0 0.0 -0.3 5.5 Kombisensor
2018-11-14 06:52:00 6.8 91.0 0.0 0.0 0.0 -0.7 5.4 Kombisensor
2018-11-14 06:49:00 6.8 90.0 0.0 0.0 0.0 -0.8 5.3 Kombisensor
2018-11-14 06:44:00 6.9 90.0 0.0 0.0 0.0 -0.8 5.4 Kombisensor
2018-11-14 06:42:00 7.0 90.0 0.0 0.0 0.0 -0.8 5.5 Kombisensor
2018-11-14 06:37:00 7.1 90.0 0.0 0.0 0.0 -0.9 5.6 Kombisensor
2018-11-14 06:31:00 7.0 90.0 0.0 0.0 0.0 -1.1 5.5 Kombisensor
2018-11-14 06:26:00 6.9 90.0 0.0 0.0 0.0 -1.3 5.4 Kombisensor
2018-11-14 06:24:00 7.0 89.0 0.0 0.0 0.0 -1.2 5.3 Kombisensor
2018-11-14 06:21:00 6.9 89.0 0.0 0.0 0.0 -1.4 5.2 Kombisensor
2018-11-14 06:16:00 7.0 89.0 0.0 0.0 0.0 -1.3 5.3 Kombisensor
2018-11-14 06:14:00 7.1 89.0 0.0 0.0 0.0 -1.3 5.4 Kombisensor
2018-11-14 06:04:00 7.2 89.0 0.0 0.0 0.0 -1.3 5.5 Kombisensor
2018-11-14 06:01:00 7.2 88.0 0.0 0.0 0.0 -1.3 5.3 Kombisensor
2018-11-14 05:56:00 7.3 88.0 0.0 0.0 0.0 -1.3 5.5 Kombisensor
2018-11-14 05:51:00 7.5 88.0 0.0 0.0 0.0 -1.2 5.6 Kombisensor
2018-11-14 05:46:00 7.6 88.0 0.0 0.0 0.0 -1.2 5.7 Kombisensor
2018-11-14 05:43:00 7.7 88.0 0.0 0.0 0.0 -1.2 5.8 Kombisensor
2018-11-14 05:41:00 7.8 88.0 0.0 0.0 0.0 -1.1 5.9 Kombisensor
2018-11-14 05:38:00 7.9 88.0 0.0 0.0 0.0 -1.0 6.0 Kombisensor
2018-11-14 05:36:00 8.0 87.0 0.2 0.0 0.0 -1.0 6.0 Kombisensor
2018-11-14 05:33:00 8.0 87.0 0.0 0.0 0.0 -1.2 6.0 Kombisensor
2018-11-14 05:30:00 8.1 87.0 0.2 0.0 0.0 -1.1 6.1 Kombisensor
2018-11-14 05:28:00 8.1 87.0 0.0 0.0 0.0 -1.1 6.1 Kombisensor
2018-11-14 05:23:00 8.2 87.0 0.2 0.0 0.0 -1.2 6.2 Kombisensor
2018-11-14 05:20:00 8.3 87.0 0.2 0.0 0.0 -1.3 6.3 Kombisensor
2018-11-14 05:18:00 8.3 87.0 0.8 0.0 0.0 -1.3 6.3 Kombisensor
2018-11-14 05:15:00 8.3 87.0 1.3 0.0 0.0 -1.4 6.3 Kombisensor
2018-11-14 05:10:00 8.4 87.0 0.5 0.0 0.0 -1.4 6.4 Kombisensor
2018-11-14 05:08:00 8.4 87.0 1.1 0.0 0.0 -1.5 6.4 Kombisensor
2018-11-14 05:05:00 8.4 87.0 0.5 0.0 0.0 -1.5 6.4 Kombisensor
2018-11-14 05:03:00 8.5 87.0 0.8 0.0 0.0 -1.4 6.5 Kombisensor
2018-11-14 05:00:00 8.5 87.0 0.5 0.0 0.0 -1.4 6.5 Kombisensor
2018-11-14 04:57:00 8.6 87.0 0.2 0.0 0.0 -1.3 6.6 Kombisensor
2018-11-14 04:55:00 8.6 87.0 0.5 0.0 0.0 -1.3 6.6 Kombisensor
2018-11-14 04:52:00 8.7 87.0 0.5 0.0 0.0 -1.3 6.7 Kombisensor
2018-11-14 04:50:00 8.8 87.0 0.2 0.0 0.0 -1.2 6.8 Kombisensor
2018-11-14 04:47:00 8.8 87.0 1.1 0.0 0.0 -1.2 6.8 Kombisensor
2018-11-14 04:45:00 8.8 87.0 1.3 0.0 0.0 -1.2 6.8 Kombisensor
2018-11-14 04:42:00 8.9 87.0 1.1 0.0 0.0 -1.1 6.9 Kombisensor
2018-11-14 04:40:00 8.9 87.0 2.2 0.0 0.0 -1.1 6.9 Kombisensor
2018-11-14 04:37:00 8.9 87.0 0.5 0.0 0.0 -1.1 6.9 Kombisensor
2018-11-14 04:35:00 9.0 87.0 0.5 0.0 0.0 -1.1 7.0 Kombisensor
2018-11-14 04:29:00 9.2 86.0 0.2 0.0 0.0 -0.8 7.0 Kombisensor
2018-11-14 04:27:00 9.3 86.0 0.0 0.0 0.0 -0.7 7.1 Kombisensor
2018-11-14 04:24:00 9.4 86.0 0.0 0.0 0.0 -0.6 7.2 Kombisensor
2018-11-14 04:22:00 9.5 86.0 0.0 0.0 0.0 -0.5 7.3 Kombisensor
2018-11-14 04:17:00 9.6 86.0 1.1 0.0 0.0 -0.4 7.4 Kombisensor
2018-11-14 04:14:00 9.7 86.0 1.1 0.0 0.0 -0.3 7.5 Kombisensor
2018-11-14 04:09:00 9.8 86.0 1.3 0.0 0.0 -0.2 7.6 Kombisensor
2018-11-14 04:07:00 9.9 86.0 1.3 0.0 0.0 -0.1 7.7 Kombisensor
2018-11-14 04:04:00 9.9 86.0 1.3 0.0 0.0 -0.1 7.7 Kombisensor
2018-11-14 04:02:00 9.9 86.0 1.1 0.0 0.0 -0.1 7.7 Kombisensor
2018-11-14 03:59:00 9.9 86.0 0.2 0.0 0.0 -0.1 7.7 Kombisensor
2018-11-14 03:56:00 9.9 85.0 0.2 0.0 0.0 -0.1 7.5 Kombisensor
2018-11-14 03:54:00 9.9 85.0 0.8 0.0 0.0 -0.1 7.5 Kombisensor
2018-11-14 03:49:00 10.0 85.0 1.9 0.0 0.0 0.0 7.6 Kombisensor
2018-11-14 03:46:00 10.0 85.0 0.5 0.0 0.0 0.0 7.6 Kombisensor
2018-11-14 03:41:00 10.0 85.0 0.0 0.0 0.0 0.0 7.6 Kombisensor
2018-11-14 03:39:00 10.0 85.0 0.2 0.0 0.0 0.0 7.6 Kombisensor
2018-11-14 03:36:00 10.0 85.0 1.9 0.0 0.0 0.0 7.6 Kombisensor
2018-11-14 03:34:00 10.1 85.0 1.1 0.0 0.0 0.2 7.7 Kombisensor
2018-11-14 03:31:00 10.1 85.0 1.3 0.0 0.0 0.2 7.7 Kombisensor
2018-11-14 03:29:00 10.0 85.0 0.8 0.0 0.0 0.1 7.6 Kombisensor
2018-11-14 03:26:00 10.0 85.0 0.5 0.0 0.0 0.1 7.6 Kombisensor
2018-11-14 03:23:00 10.0 85.0 1.6 0.0 0.0 0.2 7.6 Kombisensor
2018-11-14 03:21:00 10.0 85.0 0.8 0.0 0.0 0.2 7.6 Kombisensor
2018-11-14 03:18:00 10.0 86.0 1.6 0.0 0.0 0.2 7.8 Kombisensor
2018-11-14 03:16:00 10.0 86.0 0.8 0.0 0.0 0.2 7.8 Kombisensor
2018-11-14 03:13:00 10.0 86.0 0.5 0.0 0.0 0.2 7.8 Kombisensor
2018-11-14 03:08:00 10.0 86.0 0.2 0.0 0.0 0.3 7.8 Kombisensor
2018-11-14 03:06:00 10.0 86.0 0.5 0.0 0.0 0.3 7.8 Kombisensor
2018-11-14 03:03:00 10.0 86.0 1.9 0.0 0.0 0.4 7.8 Kombisensor
2018-11-14 03:01:00 10.0 86.0 1.1 0.0 0.0 0.4 7.8 Kombisensor
2018-11-14 02:58:00 10.0 87.0 1.3 0.0 0.0 0.4 7.9 Kombisensor
2018-11-14 02:55:00 10.0 87.0 0.0 0.0 0.0 0.4 7.9 Kombisensor
2018-11-14 02:53:00 10.0 87.0 1.1 0.0 0.0 0.4 7.9 Kombisensor
2018-11-14 02:48:00 10.0 86.0 0.5 0.0 0.0 0.4 7.8 Kombisensor
2018-11-14 02:43:00 10.0 86.0 0.2 0.0 0.0 0.5 7.8 Kombisensor
2018-11-14 02:38:00 10.0 86.0 1.9 0.0 0.0 0.5 7.8 Kombisensor
2018-11-14 02:35:00 10.0 87.0 1.9 0.0 0.0 0.5 7.9 Kombisensor
2018-11-14 02:33:00 9.9 87.0 2.2 0.0 0.0 0.4 7.8 Kombisensor
2018-11-14 02:27:00 9.9 87.0 0.5 0.0 0.0 0.5 7.8 Kombisensor
2018-11-14 02:25:00 9.8 86.0 1.3 0.0 0.0 0.3 7.6 Kombisensor
2018-11-14 02:22:00 9.8 86.0 1.3 0.0 0.0 0.3 7.6 Kombisensor
2018-11-14 02:20:00 9.8 86.0 0.8 0.0 0.0 0.3 7.6 Kombisensor
2018-11-14 02:17:00 9.8 86.0 1.3 0.0 0.0 0.3 7.6 Kombisensor
2018-11-14 02:15:00 9.8 86.0 0.2 0.0 0.0 0.2 7.6 Kombisensor
2018-11-14 02:12:00 9.8 86.0 1.3 0.0 0.0 0.2 7.6 Kombisensor
2018-11-14 02:10:00 9.7 87.0 0.2 0.0 0.0 0.1 7.6 Kombisensor
2018-11-14 02:07:00 9.7 87.0 0.5 0.0 0.0 0.1 7.6 Kombisensor
2018-11-14 02:05:00 9.7 87.0 0.5 0.0 0.0 0.0 7.6 Kombisensor
2018-11-14 02:02:00 9.6 87.0 0.8 0.0 0.0 -0.1 7.5 Kombisensor
2018-11-14 02:00:00 9.6 87.0 2.5 0.0 0.0 -0.1 7.5 Kombisensor
2018-11-14 01:57:00 9.6 87.0 1.3 0.0 0.0 0.0 7.5 Kombisensor
2018-11-14 01:52:00 9.6 87.0 0.8 0.0 0.0 0.0 7.5 Kombisensor
2018-11-14 01:47:00 9.6 87.0 0.5 0.0 0.0 0.1 7.5 Kombisensor
2018-11-14 01:44:00 9.6 87.0 0.8 0.0 0.0 0.1 7.5 Kombisensor
2018-11-14 01:37:00 9.5 87.0 0.2 0.0 0.0 0.1 7.5 Kombisensor
2018-11-14 01:34:00 9.5 87.0 1.1 0.0 0.0 0.1 7.5 Kombisensor
2018-11-14 01:32:00 9.5 87.0 0.8 0.0 0.0 0.1 7.5 Kombisensor
2018-11-14 01:29:00 9.5 86.0 0.0 0.0 0.0 0.0 7.3 Kombisensor
2018-11-14 01:27:00 9.4 86.0 0.0 0.0 0.0 -0.1 7.2 Kombisensor
2018-11-14 01:21:00 9.5 86.0 0.2 0.0 0.0 -0.1 7.3 Kombisensor
2018-11-14 01:19:00 9.5 86.0 0.0 0.0 0.0 -0.1 7.3 Kombisensor
2018-11-14 01:16:00 9.5 86.0 1.1 0.0 0.0 0.0 7.3 Kombisensor
2018-11-14 01:14:00 9.6 86.0 1.1 0.0 0.0 0.1 7.4 Kombisensor
2018-11-14 01:11:00 9.6 86.0 0.8 0.0 0.0 0.1 7.4 Kombisensor
2018-11-14 01:06:00 9.6 85.0 2.5 0.0 0.0 0.0 7.2 Kombisensor
2018-11-14 01:04:00 9.7 85.0 1.9 0.0 0.0 0.1 7.3 Kombisensor
2018-11-14 01:01:00 9.7 85.0 3.6 0.0 0.0 0.1 7.3 Kombisensor
2018-11-14 00:59:00 9.7 85.0 3.8 0.0 0.0 9.7 7.3 Kombisensor
2018-11-14 00:53:00 9.6 86.0 3.8 0.0 0.0 0.0 7.4 Kombisensor
2018-11-14 00:51:00 9.6 86.0 3.6 0.0 0.0 0.0 7.4 Kombisensor
2018-11-14 00:48:00 9.6 86.0 21.9 0.0 0.0 0.1 7.4 Kombisensor
2018-11-14 00:46:00 9.5 87.0 2.5 0.0 0.0 0.0 7.5 Kombisensor
2018-11-14 00:43:00 9.5 87.0 3.0 0.0 0.0 0.0 7.5 Kombisensor
2018-11-14 00:41:00 9.5 88.0 3.8 0.0 0.0 0.1 7.6 Kombisensor
2018-11-14 00:38:00 9.4 88.0 3.6 0.0 0.0 0.0 7.5 Kombisensor
2018-11-14 00:36:00 9.4 88.0 2.5 0.0 0.0 0.0 7.5 Kombisensor
2018-11-14 00:33:00 9.4 88.0 1.6 0.0 0.0 0.0 7.5 Kombisensor
2018-11-14 00:31:00 9.4 88.0 1.9 0.0 0.0 -0.1 7.5 Kombisensor
2018-11-14 00:26:00 9.5 89.0 5.0 0.0 0.0 0.0 7.8 Kombisensor
2018-11-14 00:23:00 9.5 89.0 2.7 0.0 0.0 -0.1 7.8 Kombisensor
2018-11-14 00:20:00 9.6 89.0 5.2 0.0 0.0 0.1 7.9 Kombisensor
2018-11-14 00:18:00 9.5 89.0 5.0 0.0 0.0 0.0 7.8 Kombisensor
2018-11-14 00:15:00 9.5 89.0 4.1 0.0 0.0 0.0 7.8 Kombisensor
2018-11-14 00:13:00 9.5 89.0 3.8 0.0 0.0 0.0 7.8 Kombisensor
2018-11-14 00:10:00 9.5 89.0 4.1 0.0 0.0 -0.1 7.8 Kombisensor
2018-11-14 00:08:00 9.6 88.0 3.6 0.0 0.0 0.0 7.7 Kombisensor
2018-11-14 00:05:00 9.6 89.0 4.7 0.0 0.0 0.0 7.9 Kombisensor
2018-11-14 00:03:00 9.6 88.0 4.7 0.0 0.0 0.0 7.7 Kombisensor
2018-11-14 00:00:00 9.6 88.0 3.0 0.0 0.0 0.0 7.7 Kombisensor